createdAt,value
2023-02-27T00:00:00.000Z,10.38
2023-02-27T00:15:00.000Z,10.53
2023-02-27T00:30:00.000Z,10.41
2023-02-27T00:45:00.000Z,10.95
2023-02-27T01:00:00.000Z,12.08
2023-02-27T01:15:00.000Z,14.32
2023-02-27T01:30:00.000Z,14.58
2023-02-27T01:45:00.000Z,15.56
2023-02-27T02:00:00.000Z,15.69
2023-02-27T02:15:00.000Z,16.66
2023-02-27T02:30:00.000Z,18.09
2023-02-27T02:45:00.000Z,17.66
2023-02-27T03:00:00.000Z,16.69
2023-02-27T03:15:00.000Z,16.84
2023-02-27T03:30:00.000Z,16.07
2023-02-27T03:45:00.000Z,14.56
2023-02-27T04:00:00.000Z,14.09
2023-02-27T04:15:00.000Z,15.51
2023-02-27T04:30:00.000Z,16.91
2023-02-27T04:45:00.000Z,17.28
2023-02-27T05:00:00.000Z,17.21
2023-02-27T05:15:00.000Z,17.05
2023-02-27T05:30:00.000Z,16.84
2023-02-27T05:45:00.000Z,17.8
2023-02-27T06:00:00.000Z,18.65
2023-02-27T06:15:00.000Z,20.55
2023-02-27T06:30:00.000Z,18.04
2023-02-27T06:45:00.000Z,16.51
2023-02-27T07:00:00.000Z,16.26
2023-02-27T07:15:00.000Z,15.58
2023-02-27T07:30:00.000Z,18.41
2023-02-27T07:45:00.000Z,15.02
2023-02-27T08:00:00.000Z,13.98
2023-02-27T08:15:00.000Z,13.14
2023-02-27T08:30:00.000Z,12.16
2023-02-27T08:45:00.000Z,11.42
2023-02-27T09:00:00.000Z,10.2
2023-02-27T09:15:00.000Z,10.94
2023-02-27T09:30:00.000Z,10.16
2023-02-27T09:45:00.000Z,9.99
2023-02-27T10:00:00.000Z,10.8
2023-02-27T10:15:00.000Z,11.34
2023-02-27T10:30:00.000Z,13.2
2023-02-27T10:45:00.000Z,13.4
2023-02-27T11:00:00.000Z,12.26
2023-02-27T11:15:00.000Z,11.41
2023-02-27T11:30:00.000Z,11.13
2023-02-27T11:45:00.000Z,11.99
2023-02-27T12:00:00.000Z,11.2
2023-02-27T12:15:00.000Z,11.26
2023-02-27T12:30:00.000Z,11.16
2023-02-27T12:45:00.000Z,13.42
2023-02-27T13:00:00.000Z,13.15
2023-02-27T13:15:00.000Z,14.93
2023-02-27T13:30:00.000Z,14.95
2023-02-27T13:45:00.000Z,14.6
2023-02-27T14:00:00.000Z,14.81
2023-02-27T14:15:00.000Z,15.12
2023-02-27T14:30:00.000Z,22.14
2023-02-27T14:45:00.000Z,16.74
2023-02-27T15:00:00.000Z,15.94
2023-02-27T15:15:00.000Z,19.62
2023-02-27T15:30:00.000Z,14.41
2023-02-27T15:45:00.000Z,16.49
2023-02-27T16:00:00.000Z,14.89
2023-02-27T16:15:00.000Z,14.32
2023-02-27T16:30:00.000Z,13.99
2023-02-27T16:45:00.000Z,14.05
2023-02-27T17:00:00.000Z,13.68
2023-02-27T17:15:00.000Z,12.02
2023-02-27T17:30:00.000Z,11.06
2023-02-27T17:45:00.000Z,10.07
2023-02-27T18:00:00.000Z,10.62
2023-02-27T18:15:00.000Z,10.86
2023-02-27T18:30:00.000Z,10.08
2023-02-27T18:45:00.000Z,10.34
2023-02-27T19:00:00.000Z,10.36
2023-02-27T19:15:00.000Z,10.21
2023-02-27T19:30:00.000Z,11.07
2023-02-27T19:45:00.000Z,11.85
2023-02-27T20:00:00.000Z,11.96
2023-02-27T20:15:00.000Z,13.55
2023-02-27T20:30:00.000Z,16.91
2023-02-27T20:45:00.000Z,14.62
2023-02-27T21:00:00.000Z,12.68
2023-02-27T21:15:00.000Z,12.61
2023-02-27T21:30:00.000Z,13.56
2023-02-27T21:45:00.000Z,12.62
2023-02-27T22:00:00.000Z,13.65
2023-02-27T22:15:00.000Z,12.89
2023-02-27T22:30:00.000Z,13.68
2023-02-27T22:45:00.000Z,14.12
2023-02-27T23:00:00.000Z,14.22
2023-02-27T23:15:00.000Z,14.29
2023-02-27T23:30:00.000Z,14.26
2023-02-27T23:45:00.000Z,14.39
